createdAt,value
2023-04-17T00:00:27.854Z,9.20
2023-04-17T00:01:31.666Z,9.10
2023-04-17T00:02:39.846Z,9.10
2023-04-17T00:03:47.405Z,9.10
2023-04-17T00:04:52.578Z,9.10
2023-04-17T00:05:56.881Z,9.10
2023-04-17T00:07:03.351Z,9.10
2023-04-17T00:08:07.345Z,9.10
2023-04-17T00:09:10.543Z,9.10
2023-04-17T00:10:14.911Z,9.00
2023-04-17T00:11:18.854Z,9.00
2023-04-17T00:12:23.001Z,9.00
2023-04-17T00:13:25.757Z,9.00
2023-04-17T00:14:31.314Z,9.00
2023-04-17T00:15:34.270Z,9.00
2023-04-17T00:16:38.261Z,9.00
2023-04-17T00:17:44.169Z,9.00
2023-04-17T00:18:47.799Z,8.90
2023-04-17T00:19:50.609Z,9.00
2023-04-17T00:20:54.711Z,8.90
2023-04-17T00:21:57.271Z,8.90
2023-04-17T00:23:01.046Z,8.90
2023-04-17T00:24:03.842Z,8.90
2023-04-17T00:25:10.509Z,8.90
2023-04-17T00:26:13.229Z,8.90
2023-04-17T00:27:19.364Z,8.90
2023-04-17T00:28:22.116Z,8.90
2023-04-17T00:29:26.076Z,8.90
2023-04-17T00:30:30.133Z,8.90
2023-04-17T00:31:34.005Z,8.90
2023-04-17T00:32:36.870Z,8.90
2023-04-17T00:33:41.049Z,8.90
2023-04-17T00:34:43.671Z,8.90
2023-04-17T00:35:55.233Z,8.90
2023-04-17T00:36:59.297Z,8.90
2023-04-17T00:38:02.887Z,8.90
2023-04-17T00:39:05.579Z,8.90
2023-04-17T00:40:11.073Z,8.90
2023-04-17T00:41:13.722Z,8.90
2023-04-17T00:42:17.341Z,8.90
2023-04-17T00:43:19.948Z,8.90
2023-04-17T00:44:23.715Z,8.80
2023-04-17T00:45:26.379Z,8.90
2023-04-17T00:46:32.737Z,8.80
2023-04-17T00:47:35.336Z,8.80
2023-04-17T00:48:41.162Z,8.80
2023-04-17T00:49:44.569Z,8.80
2023-04-17T00:50:48.849Z,8.80
2023-04-17T00:51:51.921Z,8.80
2023-04-17T00:52:56.847Z,8.80
2023-04-17T00:54:00.662Z,8.80
2023-04-17T00:55:05.255Z,8.80
2023-04-17T00:56:09.380Z,8.80
2023-04-17T00:57:14.304Z,8.80
2023-04-17T00:58:18.088Z,8.80
2023-04-17T00:59:22.139Z,8.90
2023-04-17T01:00:26.022Z,8.90
2023-04-17T01:01:30.155Z,8.90
2023-04-17T01:02:34.298Z,8.90
2023-04-17T01:03:37.489Z,8.90
2023-04-17T01:04:41.377Z,8.90
2023-04-17T01:05:44.735Z,8.90
2023-04-17T01:06:48.435Z,8.90
2023-04-17T01:07:51.600Z,8.90
2023-04-17T01:08:56.336Z,8.90
2023-04-17T01:10:00.205Z,8.90
2023-04-17T01:11:03.971Z,8.90
2023-04-17T01:12:23.861Z,8.90
2023-04-17T01:13:27.497Z,8.90
2023-04-17T01:14:30.440Z,8.90
2023-04-17T01:15:34.867Z,8.90
2023-04-17T01:16:40.313Z,8.90
2023-04-17T01:17:44.251Z,8.90
2023-04-17T01:18:48.486Z,8.90
2023-04-17T01:19:52.223Z,8.90
2023-04-17T01:20:54.771Z,8.90
2023-04-17T01:21:58.468Z,8.90
2023-04-17T01:23:01.684Z,8.90
2023-04-17T01:24:08.132Z,8.90
2023-04-17T01:25:11.116Z,8.90
2023-04-17T01:26:21.087Z,8.90
2023-04-17T01:27:24.993Z,8.90
2023-04-17T01:28:28.624Z,8.90
2023-04-17T01:29:31.464Z,8.90
2023-04-17T01:30:35.384Z,8.90
2023-04-17T01:31:41.649Z,8.90
2023-04-17T01:32:45.423Z,8.90
2023-04-17T01:33:48.765Z,8.90
2023-04-17T01:34:52.349Z,8.90
2023-04-17T01:35:55.115Z,8.90
2023-04-17T01:36:58.983Z,8.90
2023-04-17T01:38:01.585Z,8.80
2023-04-17T01:39:07.647Z,8.80
2023-04-17T01:40:11.697Z,8.80
2023-04-17T01:41:15.515Z,8.80
2023-04-17T01:42:18.286Z,8.80
2023-04-17T01:43:22.068Z,8.80
2023-04-17T01:44:24.847Z,8.80
2023-04-17T01:45:28.698Z,8.80
2023-04-17T01:46:31.422Z,8.80
2023-04-17T01:47:35.410Z,8.90
2023-04-17T01:48:38.400Z,8.80
2023-04-17T01:49:42.089Z,8.80
2023-04-17T01:50:45.157Z,8.80
2023-04-17T01:51:48.972Z,8.80
2023-04-17T01:52:51.796Z,8.80
2023-04-17T01:53:55.952Z,8.80
2023-04-17T01:55:00.034Z,8.80
2023-04-17T01:56:05.476Z,8.80
2023-04-17T01:57:08.127Z,8.80
2023-04-17T01:58:11.751Z,8.80
2023-04-17T01:59:14.849Z,8.80
2023-04-17T02:00:19.772Z,8.80
2023-04-17T02:01:22.851Z,8.80
2023-04-17T02:02:26.960Z,8.80
2023-04-17T02:03:31.508Z,8.80
2023-04-17T02:04:35.387Z,8.80
2023-04-17T02:05:38.282Z,8.80
2023-04-17T02:06:42.496Z,8.80
2023-04-17T02:07:45.388Z,8.80
2023-04-17T02:08:49.180Z,8.80
2023-04-17T02:09:51.838Z,8.80
2023-04-17T02:10:56.838Z,8.80
2023-04-17T02:11:59.824Z,8.80
2023-04-17T02:13:03.555Z,8.80
2023-04-17T02:14:06.607Z,8.80
2023-04-17T02:15:11.811Z,8.80
2023-04-17T02:16:14.635Z,8.80
2023-04-17T02:17:19.028Z,8.80
2023-04-17T02:18:22.415Z,8.80
2023-04-17T02:19:26.248Z,8.80
2023-04-17T02:20:29.658Z,8.80
2023-04-17T02:21:35.052Z,8.80
2023-04-17T02:22:40.869Z,8.80
2023-04-17T02:23:45.069Z,8.80
2023-04-17T02:24:47.741Z,8.80
2023-04-17T02:25:51.717Z,8.80
2023-04-17T02:26:56.861Z,8.80
2023-04-17T02:28:00.492Z,8.80
2023-04-17T02:29:03.133Z,8.80
2023-04-17T02:30:08.558Z,8.80
2023-04-17T02:31:13.049Z,8.80
2023-04-17T02:32:17.810Z,8.80
2023-04-17T02:33:20.499Z,8.80
2023-04-17T02:34:24.791Z,8.80
2023-04-17T02:35:31.825Z,8.80
2023-04-17T02:36:35.633Z,8.80
2023-04-17T02:37:39.381Z,8.80
2023-04-17T02:38:43.126Z,8.80
2023-04-17T02:39:46.009Z,8.80
2023-04-17T02:40:49.970Z,8.80
2023-04-17T02:41:54.461Z,8.80
2023-04-17T02:42:58.325Z,8.80
2023-04-17T02:44:01.689Z,8.70
2023-04-17T02:45:06.863Z,8.80
2023-04-17T02:46:09.524Z,8.70
2023-04-17T02:47:13.386Z,8.80
2023-04-17T02:48:18.153Z,8.80
2023-04-17T02:49:21.907Z,8.70
2023-04-17T02:50:25.841Z,8.70
2023-04-17T02:51:42.067Z,8.70
2023-04-17T02:52:44.739Z,8.70
2023-04-17T02:53:49.300Z,8.70
2023-04-17T02:54:52.252Z,8.70
2023-04-17T02:55:56.194Z,8.70
2023-04-17T02:57:01.931Z,8.70
2023-04-17T02:58:06.145Z,8.70
2023-04-17T02:59:09.101Z,8.70
2023-04-17T03:00:14.948Z,8.70
2023-04-17T03:01:19.015Z,8.70
2023-04-17T03:02:22.706Z,8.70
2023-04-17T03:03:28.021Z,8.70
2023-04-17T03:04:31.171Z,8.70
2023-04-17T03:05:36.411Z,8.60
2023-04-17T03:06:39.550Z,8.60
2023-04-17T03:07:44.431Z,8.70
2023-04-17T03:08:48.269Z,8.60
2023-04-17T03:09:54.243Z,8.60
2023-04-17T03:10:57.141Z,8.60
2023-04-17T03:12:05.952Z,8.60
2023-04-17T03:13:08.984Z,8.60
2023-04-17T03:14:13.129Z,8.60
2023-04-17T03:15:18.618Z,8.60
2023-04-17T03:16:27.889Z,8.60
2023-04-17T03:17:33.080Z,8.60
2023-04-17T03:18:42.084Z,8.60
2023-04-17T03:19:44.558Z,8.60
2023-04-17T03:20:48.298Z,8.60
2023-04-17T03:21:50.908Z,8.60
2023-04-17T03:22:54.711Z,8.60
2023-04-17T03:23:57.371Z,8.70
2023-04-17T03:25:01.049Z,8.60
2023-04-17T03:26:12.341Z,8.60
2023-04-17T03:27:16.818Z,8.70
2023-04-17T03:28:22.126Z,8.60
2023-04-17T03:29:24.986Z,8.70
2023-04-17T03:30:28.646Z,8.70
2023-04-17T03:31:33.919Z,8.70
2023-04-17T03:32:38.791Z,8.70
2023-04-17T03:33:41.902Z,8.70
2023-04-17T03:34:46.145Z,8.70
2023-04-17T03:35:49.040Z,8.70
2023-04-17T03:36:52.682Z,8.70
2023-04-17T03:37:55.546Z,8.70
2023-04-17T03:39:00.058Z,8.70
2023-04-17T03:40:04.228Z,8.70
2023-04-17T03:41:08.218Z,8.70
2023-04-17T03:42:14.538Z,8.70
2023-04-17T03:43:19.640Z,8.70
2023-04-17T03:44:22.455Z,8.70
2023-04-17T03:45:27.207Z,8.70
2023-04-17T03:46:30.306Z,8.70
2023-04-17T03:47:34.091Z,8.70
2023-04-17T03:48:37.076Z,8.70
2023-04-17T03:49:41.332Z,8.70
2023-04-17T03:50:44.242Z,8.70
2023-04-17T03:51:48.406Z,8.70
2023-04-17T03:52:54.508Z,8.70
2023-04-17T03:53:58.589Z,8.70
2023-04-17T03:55:01.770Z,8.70
2023-04-17T03:56:07.160Z,8.70
2023-04-17T03:57:13.642Z,8.70
2023-04-17T03:58:18.958Z,8.70
2023-04-17T03:59:21.554Z,8.70
2023-04-17T04:00:26.192Z,8.70
2023-04-17T04:01:34.398Z,8.70
2023-04-17T04:02:49.382Z,8.60
2023-04-17T04:03:57.239Z,8.60
2023-04-17T04:05:01.594Z,8.60
2023-04-17T04:06:07.319Z,8.60
2023-04-17T04:07:11.369Z,8.60
2023-04-17T04:08:14.400Z,8.60
2023-04-17T04:09:22.749Z,8.60
2023-04-17T04:10:25.380Z,8.60
2023-04-17T04:11:29.231Z,8.60
2023-04-17T04:12:31.998Z,8.60
2023-04-17T04:13:37.015Z,8.60
2023-04-17T04:14:41.940Z,8.60
2023-04-17T04:15:46.819Z,8.60
2023-04-17T04:16:50.697Z,8.60
2023-04-17T04:17:54.417Z,8.60
2023-04-17T04:18:56.973Z,8.60
2023-04-17T04:20:00.768Z,8.60
2023-04-17T04:21:06.257Z,8.60
2023-04-17T04:22:13.731Z,8.60
2023-04-17T04:23:25.149Z,8.60
2023-04-17T04:24:29.045Z,8.60
2023-04-17T04:25:34.165Z,8.60
2023-04-17T04:26:53.843Z,8.60
2023-04-17T04:27:56.568Z,8.60
2023-04-17T04:29:03.665Z,8.60
2023-04-17T04:30:16.729Z,8.50
2023-04-17T04:31:22.591Z,8.50
2023-04-17T04:32:25.780Z,8.60
2023-04-17T04:33:29.647Z,8.60
2023-04-17T04:34:33.215Z,8.60
2023-04-17T04:35:38.257Z,8.50
2023-04-17T04:36:50.378Z,8.50
2023-04-17T04:38:06.324Z,8.50
2023-04-17T04:39:10.132Z,8.50
2023-04-17T04:40:15.001Z,8.50
2023-04-17T04:41:20.227Z,8.50
2023-04-17T04:42:23.950Z,8.50
2023-04-17T04:43:44.616Z,8.50
2023-04-17T04:44:49.199Z,8.50
2023-04-17T04:45:55.112Z,8.50
2023-04-17T04:46:58.683Z,8.50
2023-04-17T04:48:03.437Z,8.50
2023-04-17T04:49:06.880Z,8.50
2023-04-17T04:50:11.165Z,8.50
2023-04-17T04:51:38.121Z,8.50
2023-04-17T04:52:42.642Z,8.60
2023-04-17T04:53:58.140Z,8.50
2023-04-17T04:55:01.590Z,8.60
2023-04-17T04:56:07.846Z,8.60
2023-04-17T04:57:11.201Z,8.60
2023-04-17T04:58:16.318Z,8.60
2023-04-17T04:59:20.772Z,8.60
2023-04-17T05:00:34.289Z,8.60
2023-04-17T05:01:39.809Z,8.60
2023-04-17T05:02:43.936Z,8.60
2023-04-17T05:03:51.671Z,8.60
2023-04-17T05:04:59.056Z,8.60
2023-04-17T05:06:05.999Z,8.60
2023-04-17T05:07:21.673Z,8.60
2023-04-17T05:08:25.263Z,8.60
2023-04-17T05:09:36.733Z,8.60
2023-04-17T05:10:41.457Z,8.60
2023-04-17T05:11:45.668Z,8.60
2023-04-17T05:12:49.413Z,8.60
2023-04-17T05:13:52.697Z,8.60
2023-04-17T05:15:03.462Z,8.60
2023-04-17T05:16:08.388Z,8.60
2023-04-17T05:17:13.019Z,8.70
2023-04-17T05:18:16.560Z,8.70
2023-04-17T05:19:20.852Z,8.70
2023-04-17T05:20:32.214Z,8.70
2023-04-17T05:21:36.622Z,8.70
2023-04-17T05:22:39.432Z,8.70
2023-04-17T05:23:49.494Z,8.70
2023-04-17T05:24:52.502Z,8.70
2023-04-17T05:25:56.662Z,8.70
2023-04-17T05:27:02.028Z,8.70
2023-04-17T05:28:06.458Z,8.70
2023-04-17T05:29:09.872Z,8.80
2023-04-17T05:30:15.925Z,8.80
2023-04-17T05:31:24.716Z,8.80
2023-04-17T05:32:27.806Z,8.80
2023-04-17T05:33:35.767Z,8.80
2023-04-17T05:34:39.626Z,8.90
2023-04-17T05:35:44.033Z,8.90
2023-04-17T05:36:47.537Z,8.90
2023-04-17T05:37:51.979Z,8.90
2023-04-17T05:38:54.889Z,8.90
2023-04-17T05:40:00.689Z,9.00
2023-04-17T05:41:07.647Z,9.00
2023-04-17T05:42:10.716Z,9.00
2023-04-17T05:43:14.956Z,9.00
2023-04-17T05:44:18.166Z,9.00
2023-04-17T05:45:24.945Z,9.00
2023-04-17T05:46:30.407Z,9.00
2023-04-17T05:47:34.889Z,9.10
2023-04-17T05:48:39.209Z,9.10
2023-04-17T05:49:42.778Z,9.10
2023-04-17T05:50:47.446Z,9.10
2023-04-17T05:51:50.634Z,9.10
2023-04-17T05:52:58.183Z,9.10
2023-04-17T05:54:06.209Z,9.10
2023-04-17T05:55:11.263Z,9.10
2023-04-17T05:56:16.296Z,9.10
2023-04-17T05:57:20.260Z,9.10
2023-04-17T05:58:24.935Z,9.10
2023-04-17T05:59:31.969Z,9.20
2023-04-17T06:00:36.741Z,9.20
2023-04-17T06:01:43.805Z,9.20
2023-04-17T06:02:47.924Z,9.20
2023-04-17T06:03:58.489Z,9.20
2023-04-17T06:05:07.368Z,9.20
2023-04-17T06:06:11.058Z,9.20
2023-04-17T06:07:15.254Z,9.20
2023-04-17T06:08:18.447Z,9.30
2023-04-17T06:09:25.198Z,9.30
2023-04-17T06:10:30.190Z,9.30
2023-04-17T06:11:33.508Z,9.30
2023-04-17T06:12:37.722Z,9.30
2023-04-17T06:13:44.977Z,9.30
2023-04-17T06:14:48.161Z,9.30
2023-04-17T06:15:55.026Z,9.30
2023-04-17T06:16:59.743Z,9.40
2023-04-17T06:18:03.958Z,9.30
2023-04-17T06:19:07.804Z,9.40
2023-04-17T06:20:12.966Z,9.40
2023-04-17T06:21:16.123Z,9.40
2023-04-17T06:22:20.452Z,9.40
2023-04-17T06:23:23.310Z,9.40
2023-04-17T06:24:27.432Z,9.40
2023-04-17T06:25:31.492Z,9.40
2023-04-17T06:26:35.953Z,9.40
2023-04-17T06:27:43.314Z,9.40
2023-04-17T06:28:47.802Z,9.40
2023-04-17T06:29:50.715Z,9.40
2023-04-17T06:30:55.269Z,9.40
2023-04-17T06:32:03.940Z,9.50
2023-04-17T06:33:07.243Z,9.50
2023-04-17T06:34:12.337Z,9.50
2023-04-17T06:35:18.693Z,9.50
2023-04-17T06:36:33.473Z,9.50
2023-04-17T06:37:40.676Z,9.50
2023-04-17T06:38:43.574Z,9.50
2023-04-17T06:39:47.916Z,9.50
2023-04-17T06:40:52.701Z,9.50
2023-04-17T06:41:57.239Z,9.50
2023-04-17T06:43:04.696Z,9.50
2023-04-17T06:44:08.081Z,9.50
2023-04-17T06:45:23.224Z,9.50
2023-04-17T06:46:28.219Z,9.50
2023-04-17T06:47:34.001Z,9.50
2023-04-17T06:48:38.196Z,9.50
2023-04-17T06:49:41.456Z,9.50
2023-04-17T06:50:45.634Z,9.50
2023-04-17T06:51:50.404Z,9.50
2023-04-17T06:52:53.318Z,9.50
2023-04-17T06:53:57.384Z,9.50
2023-04-17T06:55:00.610Z,9.60
2023-04-17T06:56:05.119Z,9.50
2023-04-17T06:57:10.885Z,9.50
2023-04-17T06:58:13.944Z,9.60
2023-04-17T06:59:18.344Z,9.60
2023-04-17T07:00:23.069Z,9.60
2023-04-17T07:01:28.168Z,9.60
2023-04-17T07:02:32.757Z,9.60
2023-04-17T07:03:37.151Z,9.60
2023-04-17T07:04:40.509Z,9.60
2023-04-17T07:05:46.100Z,9.60
2023-04-17T07:06:50.194Z,9.60
2023-04-17T07:07:53.279Z,9.60
2023-04-17T07:08:57.286Z,9.60
2023-04-17T07:10:00.371Z,9.60
2023-04-17T07:11:04.796Z,9.70
2023-04-17T07:12:08.196Z,9.70
2023-04-17T07:13:13.218Z,9.70
2023-04-17T07:14:16.417Z,9.70
2023-04-17T07:15:20.901Z,9.70
2023-04-17T07:16:24.007Z,9.70
2023-04-17T07:17:28.551Z,9.70
2023-04-17T07:18:33.161Z,9.70
2023-04-17T07:19:38.543Z,9.70
2023-04-17T07:20:41.331Z,9.70
2023-04-17T07:21:47.137Z,9.70
2023-04-17T07:22:51.155Z,9.70
2023-04-17T07:23:55.216Z,9.70
2023-04-17T07:24:59.369Z,9.80
2023-04-17T07:26:03.535Z,9.80
2023-04-17T07:27:07.017Z,9.80
2023-04-17T07:28:11.889Z,9.80
2023-04-17T07:29:14.917Z,9.80
2023-04-17T07:30:19.217Z,9.80
2023-04-17T07:31:23.383Z,9.80
2023-04-17T07:32:26.437Z,9.80
2023-04-17T07:33:30.704Z,9.80
2023-04-17T07:34:37.646Z,9.80
2023-04-17T07:35:41.576Z,9.80
2023-04-17T07:36:45.794Z,9.90
2023-04-17T07:37:49.293Z,9.90
2023-04-17T07:38:53.177Z,9.90
2023-04-17T07:39:56.283Z,9.90
2023-04-17T07:41:00.837Z,9.90
2023-04-17T07:42:07.468Z,9.90
2023-04-17T07:43:11.683Z,10.00
2023-04-17T07:44:14.886Z,10.00
2023-04-17T07:45:19.651Z,10.00
2023-04-17T07:46:23.158Z,10.00
2023-04-17T07:47:27.500Z,10.10
2023-04-17T07:48:31.748Z,10.10
2023-04-17T07:49:37.386Z,10.10
2023-04-17T07:50:41.641Z,10.20
2023-04-17T07:51:44.673Z,10.20
2023-04-17T07:52:49.101Z,10.20
2023-04-17T07:53:52.141Z,10.20
2023-04-17T07:54:57.204Z,10.30
2023-04-17T07:56:01.755Z,10.30
2023-04-17T07:57:05.454Z,10.30
2023-04-17T07:58:11.438Z,10.30
2023-04-17T07:59:16.426Z,10.30
2023-04-17T08:00:21.591Z,10.30
2023-04-17T08:01:26.516Z,10.30
2023-04-17T08:02:29.804Z,10.30
2023-04-17T08:03:34.459Z,10.30
2023-04-17T08:04:40.554Z,10.30
2023-04-17T08:05:44.829Z,10.30
2023-04-17T08:06:49.110Z,10.30
2023-04-17T08:07:52.872Z,10.30
2023-04-17T08:08:56.115Z,10.30
2023-04-17T08:10:02.717Z,10.30
2023-04-17T08:11:05.910Z,10.30
2023-04-17T08:12:10.203Z,10.30
2023-04-17T08:13:13.122Z,10.30
2023-04-17T08:14:20.399Z,10.30
2023-04-17T08:15:24.874Z,10.30
2023-04-17T08:16:29.213Z,10.30
2023-04-17T08:17:33.779Z,10.30
2023-04-17T08:18:37.982Z,10.30
2023-04-17T08:19:43.567Z,10.30
2023-04-17T08:20:46.647Z,10.30
2023-04-17T08:21:52.083Z,10.30
2023-04-17T08:22:54.966Z,10.40
2023-04-17T08:23:59.016Z,10.40
2023-04-17T08:25:03.154Z,10.40
2023-04-17T08:26:07.336Z,10.50
2023-04-17T08:27:10.540Z,10.50
2023-04-17T08:28:14.652Z,10.60
2023-04-17T08:29:17.825Z,10.60
2023-04-17T08:30:22.152Z,10.70
2023-04-17T08:31:26.802Z,10.70
2023-04-17T08:32:29.920Z,10.80
2023-04-17T08:33:34.262Z,10.80
2023-04-17T08:34:38.049Z,10.90
2023-04-17T08:35:43.852Z,11.00
2023-04-17T08:36:47.999Z,11.00
2023-04-17T08:37:51.953Z,11.00
2023-04-17T08:38:55.061Z,11.10
2023-04-17T08:39:59.475Z,11.10
2023-04-17T08:41:09.218Z,11.20
2023-04-17T08:42:16.691Z,11.20
2023-04-17T08:43:23.896Z,11.20
2023-04-17T08:44:27.523Z,11.30
2023-04-17T08:45:32.000Z,11.30
2023-04-17T08:46:35.996Z,11.30
2023-04-17T08:47:41.678Z,11.40
2023-04-17T08:48:50.490Z,11.40
2023-04-17T08:49:56.152Z,11.40
2023-04-17T08:51:03.122Z,11.50
2023-04-17T08:52:08.372Z,11.60
2023-04-17T08:53:11.789Z,11.70
2023-04-17T08:54:16.054Z,11.70
2023-04-17T08:55:25.177Z,11.80
2023-04-17T08:56:30.233Z,11.90
2023-04-17T08:57:34.696Z,12.00
2023-04-17T08:58:39.297Z,12.20
2023-04-17T08:59:43.268Z,12.30
2023-04-17T09:00:47.698Z,12.40
2023-04-17T09:02:06.421Z,12.60
2023-04-17T09:03:12.559Z,12.70
2023-04-17T09:04:38.628Z,12.70
2023-04-17T09:05:46.380Z,12.80
2023-04-17T09:06:54.471Z,12.90
2023-04-17T09:08:11.757Z,12.90
2023-04-17T09:09:15.081Z,12.90
2023-04-17T09:10:19.330Z,13.00
2023-04-17T09:11:23.050Z,13.00
2023-04-17T09:12:28.373Z,13.10
2023-04-17T09:13:42.116Z,13.10
2023-04-17T09:14:45.192Z,13.30
2023-04-17T09:16:08.518Z,13.60
2023-04-17T09:17:11.598Z,14.10
2023-04-17T09:18:31.300Z,14.70
2023-04-17T09:19:35.267Z,15.10
2023-04-17T09:20:51.528Z,15.40
2023-04-17T09:23:03.594Z,15.80
2023-04-17T09:24:10.270Z,15.90
2023-04-17T09:25:17.922Z,16.10
2023-04-17T09:26:25.611Z,16.30
2023-04-17T09:27:30.128Z,16.50
2023-04-17T09:28:35.663Z,16.60
2023-04-17T09:30:01.577Z,16.80
2023-04-17T09:31:10.249Z,17.00
2023-04-17T09:32:16.508Z,17.30
2023-04-17T09:33:20.647Z,17.70
2023-04-17T09:34:24.347Z,17.90
2023-04-17T09:35:28.448Z,18.10
2023-04-17T09:36:34.465Z,18.50
2023-04-17T09:37:52.576Z,18.80
2023-04-17T09:40:01.971Z,19.60
2023-04-17T09:42:11.750Z,20.20
2023-04-17T09:43:16.149Z,20.40
2023-04-17T09:44:27.974Z,20.70
2023-04-17T09:45:37.018Z,20.90
2023-04-17T09:46:43.057Z,21.10
2023-04-17T09:47:49.001Z,21.40
2023-04-17T09:48:52.959Z,21.60
2023-04-17T09:49:58.216Z,21.90
2023-04-17T09:51:02.741Z,22.20
2023-04-17T09:52:06.899Z,22.50
2023-04-17T09:53:14.101Z,22.80
2023-04-17T09:54:18.094Z,23.20
2023-04-17T09:55:24.142Z,23.60
2023-04-17T09:56:29.984Z,24.00
2023-04-17T09:57:34.072Z,24.40
2023-04-17T09:58:39.493Z,24.80
2023-04-17T09:59:45.554Z,25.20
2023-04-17T10:00:50.209Z,25.60
2023-04-17T10:01:54.421Z,26.10
2023-04-17T10:03:00.898Z,26.50
2023-04-17T10:04:05.568Z,26.90
2023-04-17T10:05:12.675Z,27.30
2023-04-17T10:06:17.481Z,27.60
2023-04-17T10:07:21.837Z,27.90
2023-04-17T10:08:26.353Z,28.30
2023-04-17T10:09:30.255Z,28.60
2023-04-17T10:10:36.652Z,28.90
2023-04-17T10:11:42.939Z,29.00
2023-04-17T10:12:51.441Z,29.10
2023-04-17T10:14:13.418Z,29.00
2023-04-17T10:15:18.496Z,29.00
2023-04-17T10:16:34.567Z,29.00
2023-04-17T10:17:38.326Z,29.00
2023-04-17T10:18:42.542Z,29.10
2023-04-17T10:19:45.414Z,29.20
2023-04-17T10:20:50.706Z,29.10
2023-04-17T10:22:32.081Z,29.10
2023-04-17T10:23:40.944Z,29.00
2023-04-17T10:24:44.058Z,28.90
2023-04-17T10:25:51.356Z,28.80
2023-04-17T10:26:55.088Z,28.70
2023-04-17T10:28:01.536Z,28.50
2023-04-17T10:29:05.817Z,28.30
2023-04-17T10:30:13.244Z,28.10
2023-04-17T10:31:16.705Z,27.80
2023-04-17T10:32:21.741Z,27.60
2023-04-17T10:33:28.102Z,27.40
2023-04-17T10:34:37.738Z,27.20
2023-04-17T10:35:42.124Z,27.10
2023-04-17T10:36:52.674Z,27.00
2023-04-17T10:39:23.528Z,26.80
2023-04-17T10:40:32.103Z,26.60
2023-04-17T10:42:06.696Z,26.50
2023-04-17T10:43:17.566Z,26.30
2023-04-17T10:44:39.601Z,26.10
2023-04-17T10:46:22.363Z,26.00
2023-04-17T10:47:33.674Z,25.80
2023-04-17T10:48:42.542Z,25.70
2023-04-17T10:49:55.031Z,25.60
2023-04-17T10:51:01.471Z,25.60
2023-04-17T10:52:07.164Z,25.50
2023-04-17T10:54:04.267Z,25.50
2023-04-17T10:55:22.164Z,25.50
2023-04-17T10:56:29.381Z,25.60
2023-04-17T10:57:59.792Z,25.80
2023-04-17T10:59:06.462Z,26.00
2023-04-17T11:00:15.561Z,26.20
2023-04-17T11:01:19.943Z,26.40
2023-04-17T11:02:35.489Z,26.60
2023-04-17T11:03:40.630Z,26.80
2023-04-17T11:04:44.979Z,27.00
2023-04-17T11:05:53.983Z,27.10
2023-04-17T11:06:59.188Z,27.30
2023-04-17T11:08:02.076Z,27.40
2023-04-17T11:09:10.642Z,27.60
2023-04-17T11:10:18.142Z,27.70
2023-04-17T11:11:35.087Z,27.80
2023-04-17T11:12:48.806Z,27.80
2023-04-17T11:13:52.372Z,27.80
2023-04-17T11:15:04.364Z,27.90
2023-04-17T11:16:09.149Z,27.90
2023-04-17T11:17:12.264Z,27.90
2023-04-17T11:18:16.583Z,27.90
2023-04-17T11:19:21.946Z,28.00
2023-04-17T11:20:27.768Z,28.00
2023-04-17T11:21:31.425Z,28.10
2023-04-17T11:22:35.635Z,28.10
2023-04-17T11:23:39.703Z,28.20
2023-04-17T11:24:42.601Z,28.30
2023-04-17T11:25:48.135Z,28.40
2023-04-17T11:26:51.704Z,28.40
2023-04-17T11:27:59.804Z,28.50
2023-04-17T11:29:02.868Z,28.50
2023-04-17T11:30:08.955Z,28.60
2023-04-17T11:31:14.319Z,28.60
2023-04-17T11:32:19.854Z,28.70
2023-04-17T11:33:23.187Z,28.80
2023-04-17T11:34:28.289Z,28.80
2023-04-17T11:35:34.868Z,28.80
2023-04-17T11:36:37.946Z,28.80
2023-04-17T11:38:07.548Z,28.80
2023-04-17T11:39:11.742Z,28.80
2023-04-17T11:40:15.479Z,28.80
2023-04-17T11:41:20.922Z,28.90
2023-04-17T11:42:28.917Z,28.80
2023-04-17T11:43:38.208Z,28.80
2023-04-17T11:44:46.508Z,28.70
2023-04-17T11:45:54.058Z,28.70
2023-04-17T11:46:59.232Z,28.70
2023-04-17T11:48:04.015Z,28.70
2023-04-17T11:49:08.995Z,28.60
2023-04-17T11:50:15.083Z,28.60
2023-04-17T11:51:20.256Z,28.60
2023-04-17T11:52:23.308Z,28.60
2023-04-17T11:53:28.437Z,28.60
2023-04-17T11:54:35.110Z,28.60
2023-04-17T11:55:39.973Z,28.60
2023-04-17T11:57:01.861Z,28.50
2023-04-17T11:58:09.508Z,28.40
2023-04-17T11:59:12.821Z,28.30
2023-04-17T12:00:18.524Z,28.20
2023-04-17T12:01:25.002Z,28.00
2023-04-17T12:02:33.984Z,27.70
2023-04-17T12:03:38.928Z,27.50
2023-04-17T12:04:43.101Z,27.20
2023-04-17T12:06:00.616Z,26.90
2023-04-17T12:07:07.014Z,26.60
2023-04-17T12:08:09.931Z,26.30
2023-04-17T12:09:22.124Z,26.00
2023-04-17T12:10:37.014Z,25.70
2023-04-17T12:11:40.936Z,25.50
2023-04-17T12:12:45.363Z,25.20
2023-04-17T12:13:49.568Z,24.90
2023-04-17T12:14:53.460Z,24.70
2023-04-17T12:15:57.766Z,24.50
2023-04-17T12:17:02.028Z,24.30
2023-04-17T12:18:05.939Z,24.10
2023-04-17T12:19:10.761Z,24.00
2023-04-17T12:20:14.379Z,23.80
2023-04-17T12:21:19.438Z,23.70
2023-04-17T12:22:23.463Z,23.60
2023-04-17T12:23:27.839Z,23.50
2023-04-17T12:24:34.552Z,23.50
2023-04-17T12:25:37.829Z,23.60
2023-04-17T12:26:47.926Z,23.70
2023-04-17T12:27:53.021Z,23.80
2023-04-17T12:28:58.965Z,23.90
2023-04-17T12:30:01.884Z,23.90
2023-04-17T12:31:06.361Z,24.10
2023-04-17T12:32:10.551Z,24.10
2023-04-17T12:33:15.408Z,24.20
2023-04-17T12:34:19.480Z,24.30
2023-04-17T12:35:24.379Z,24.40
2023-04-17T12:36:28.543Z,24.50
2023-04-17T12:37:32.516Z,24.60
2023-04-17T12:38:36.530Z,24.70
2023-04-17T12:39:39.535Z,24.70
2023-04-17T12:40:45.719Z,24.80
2023-04-17T12:41:48.517Z,24.80
2023-04-17T12:42:54.271Z,24.90
2023-04-17T12:44:01.835Z,25.00
2023-04-17T12:45:06.829Z,25.00
2023-04-17T12:46:11.122Z,25.00
2023-04-17T12:47:14.394Z,25.10
2023-04-17T12:48:18.417Z,25.10
2023-04-17T12:49:21.746Z,25.10
2023-04-17T12:50:27.513Z,25.10
2023-04-17T12:51:31.319Z,25.20
2023-04-17T12:52:36.136Z,25.20
2023-04-17T12:53:40.719Z,25.30
2023-04-17T12:54:44.214Z,25.30
2023-04-17T12:55:48.917Z,25.40
2023-04-17T12:56:53.443Z,25.40
2023-04-17T12:57:59.410Z,25.40
2023-04-17T12:59:03.061Z,25.40
2023-04-17T13:00:11.024Z,25.30
2023-04-17T13:01:13.865Z,25.30
2023-04-17T13:02:19.185Z,25.20
2023-04-17T13:03:23.374Z,25.20
2023-04-17T13:04:26.824Z,25.10
2023-04-17T13:05:31.858Z,25.10
2023-04-17T13:06:34.968Z,25.00
2023-04-17T13:07:38.992Z,25.00
2023-04-17T13:08:43.080Z,24.90
2023-04-17T13:09:46.316Z,24.80
2023-04-17T13:10:50.367Z,24.70
2023-04-17T13:11:53.370Z,24.60
2023-04-17T13:12:59.313Z,24.50
2023-04-17T13:14:02.046Z,24.40
2023-04-17T13:15:07.503Z,24.40
2023-04-17T13:16:11.563Z,24.30
2023-04-17T13:17:17.389Z,24.30
2023-04-17T13:18:21.662Z,24.20
2023-04-17T13:19:24.963Z,24.20
2023-04-17T13:20:29.018Z,24.20
2023-04-17T13:21:32.727Z,24.20
2023-04-17T13:22:36.868Z,24.20
2023-04-17T13:23:40.722Z,24.30
2023-04-17T13:24:44.633Z,24.30
2023-04-17T13:25:55.358Z,24.30
2023-04-17T13:26:59.122Z,24.40
2023-04-17T13:28:04.556Z,24.40
2023-04-17T13:29:07.624Z,24.40
2023-04-17T13:30:12.710Z,24.50
2023-04-17T13:31:15.826Z,24.40
2023-04-17T13:32:20.076Z,24.50
2023-04-17T13:33:23.223Z,24.50
2023-04-17T13:34:27.269Z,24.40
2023-04-17T13:35:31.693Z,24.50
2023-04-17T13:36:35.137Z,24.40
2023-04-17T13:37:39.177Z,24.40
2023-04-17T13:38:42.136Z,24.40
2023-04-17T13:39:46.173Z,24.30
2023-04-17T13:40:50.436Z,24.30
2023-04-17T13:41:54.321Z,24.30
2023-04-17T13:42:58.905Z,24.20
2023-04-17T13:44:03.026Z,24.10
2023-04-17T13:45:08.799Z,24.10
2023-04-17T13:46:16.012Z,24.00
2023-04-17T13:47:20.011Z,24.00
2023-04-17T13:48:23.820Z,23.90
2023-04-17T13:49:27.386Z,23.80
2023-04-17T13:50:33.749Z,23.80
2023-04-17T13:51:36.806Z,23.70
2023-04-17T13:52:40.870Z,23.60
2023-04-17T13:53:44.141Z,23.60
2023-04-17T13:54:48.234Z,23.50
2023-04-17T13:55:51.375Z,23.40
2023-04-17T13:56:55.799Z,23.40
2023-04-17T13:57:58.461Z,23.30
2023-04-17T13:59:04.824Z,23.30
2023-04-17T14:00:10.756Z,23.20
2023-04-17T14:01:14.121Z,23.20
2023-04-17T14:02:18.050Z,23.20
2023-04-17T14:03:21.009Z,23.10
2023-04-17T14:04:24.945Z,23.10
2023-04-17T14:05:27.732Z,23.10
2023-04-17T14:06:34.050Z,23.00
2023-04-17T14:07:38.549Z,23.00
2023-04-17T14:08:44.230Z,23.00
2023-04-17T14:09:48.578Z,23.00
2023-04-17T14:10:51.367Z,22.90
2023-04-17T14:11:55.100Z,22.90
2023-04-17T14:12:57.701Z,22.90
2023-04-17T14:14:02.974Z,22.80
2023-04-17T14:15:07.615Z,22.80
2023-04-17T14:16:11.719Z,22.80
2023-04-17T14:17:14.385Z,22.80
2023-04-17T14:18:18.056Z,22.70
2023-04-17T14:19:21.644Z,22.60
2023-04-17T14:20:24.348Z,22.60
2023-04-17T14:21:27.900Z,22.60
2023-04-17T14:22:30.664Z,22.60
2023-04-17T14:23:34.519Z,22.50